createdAt,value
2022-11-20T00:00:56.339Z,93221.31
2022-11-20T00:01:57.822Z,93225.09
2022-11-20T00:02:59.259Z,93223.09
2022-11-20T00:04:01.242Z,93229.03
2022-11-20T00:05:02.666Z,93228.38
2022-11-20T00:06:06.072Z,93227.38
2022-11-20T00:07:07.654Z,93221.13
2022-11-20T00:08:09.128Z,93229.53
2022-11-20T00:09:10.930Z,93236.06
2022-11-20T00:10:12.539Z,93227.06
2022-11-20T00:11:16.706Z,93225.25
2022-11-20T00:12:18.270Z,93228.19
2022-11-20T00:13:19.686Z,93234.38
2022-11-20T00:14:22.482Z,93230.13
2022-11-20T00:15:23.893Z,93229.81
2022-11-20T00:16:27.310Z,93234.56
2022-11-20T00:17:28.780Z,93232.41
2022-11-20T00:18:30.759Z,93235.03
2022-11-20T00:19:32.206Z,93231.47
2022-11-20T00:20:33.668Z,93228.81
2022-11-20T00:21:35.105Z,93236.22
2022-11-20T00:22:36.518Z,93232.94
2022-11-20T00:23:37.928Z,93238.16
2022-11-20T00:24:42.986Z,93231.78
2022-11-20T00:25:44.732Z,93235.53
2022-11-20T00:26:46.161Z,93235.72
2022-11-20T00:27:47.609Z,93237.66
2022-11-20T00:28:51.455Z,93237.69
2022-11-20T00:29:54.208Z,93230.50
2022-11-20T00:31:01.926Z,93232.91
2022-11-20T00:32:03.500Z,93232.94
2022-11-20T00:33:04.935Z,93237.69
2022-11-20T00:34:06.370Z,93239.31
2022-11-20T00:35:08.169Z,93238.63
2022-11-20T00:36:11.892Z,93236.97
2022-11-20T00:37:13.347Z,93238.25
2022-11-20T00:38:14.769Z,93232.22
2022-11-20T00:39:16.239Z,93246.41
2022-11-20T00:40:17.769Z,93244.63
2022-11-20T00:41:19.275Z,93251.97
2022-11-20T00:42:20.726Z,93244.19
2022-11-20T00:43:22.279Z,93244.28
2022-11-20T00:44:23.684Z,93252.56
2022-11-20T00:45:26.442Z,93249.75
2022-11-20T00:46:28.932Z,93250.63
2022-11-20T00:47:30.379Z,93254.72
2022-11-20T00:48:32.608Z,93252.06
2022-11-20T00:49:34.047Z,93255.81
2022-11-20T00:50:35.492Z,93260.75
2022-11-20T00:51:36.985Z,93261.56
2022-11-20T00:52:38.422Z,93256.63
2022-11-20T00:53:39.841Z,93255.19
2022-11-20T00:54:41.234Z,93258.22
2022-11-20T00:55:42.615Z,93267.72
2022-11-20T00:56:44.040Z,93262.81
2022-11-20T00:57:45.468Z,93264.09
2022-11-20T00:58:48.914Z,93254.00
2022-11-20T00:59:50.332Z,93257.94
2022-11-20T01:00:53.496Z,93257.47
2022-11-20T01:01:54.946Z,93266.75
2022-11-20T01:02:56.763Z,93268.38
2022-11-20T01:04:00.122Z,93263.03
2022-11-20T01:05:01.543Z,93264.31
2022-11-20T01:06:04.074Z,93264.66
2022-11-20T01:07:05.527Z,93260.41
2022-11-20T01:08:06.974Z,93261.69
2022-11-20T01:09:13.293Z,93262.34
2022-11-20T01:10:14.847Z,93264.63
2022-11-20T01:11:18.640Z,93267.88
2022-11-20T01:12:20.083Z,93261.19
2022-11-20T01:13:25.502Z,93262.34
2022-11-20T01:14:27.389Z,93259.69
2022-11-20T01:15:28.816Z,93262.56
2022-11-20T01:16:33.532Z,93261.03
2022-11-20T01:17:34.966Z,93264.63
2022-11-20T01:18:37.317Z,93260.13
2022-11-20T01:19:38.844Z,93260.88
2022-11-20T01:20:40.275Z,93262.84
2022-11-20T01:21:43.946Z,93267.13
2022-11-20T01:22:45.373Z,93264.38
2022-11-20T01:23:47.903Z,93265.97
2022-11-20T01:24:49.352Z,93274.38
2022-11-20T01:25:50.769Z,93268.91
2022-11-20T01:26:52.745Z,93266.63
2022-11-20T01:27:54.176Z,93271.25
2022-11-20T01:28:56.715Z,93271.69
2022-11-20T01:30:01.087Z,93279.22
2022-11-20T01:31:11.794Z,93269.44
2022-11-20T01:32:14.575Z,93274.38
2022-11-20T01:33:16.015Z,93276.81
2022-11-20T01:34:19.515Z,93282.34
2022-11-20T01:35:21.054Z,93279.13
2022-11-20T01:36:25.692Z,93279.44
2022-11-20T01:37:27.135Z,93275.31
2022-11-20T01:38:28.551Z,93279.41
2022-11-20T01:39:30.048Z,93281.34
2022-11-20T01:40:31.470Z,93278.31
2022-11-20T01:41:34.891Z,93276.66
2022-11-20T01:42:36.359Z,93279.59
2022-11-20T01:43:37.823Z,93277.16
2022-11-20T01:44:54.905Z,93276.66
2022-11-20T01:46:02.216Z,93280.41
2022-11-20T01:47:05.853Z,93278.97
2022-11-20T01:48:08.666Z,93278.13
2022-11-20T01:49:16.149Z,93282.22
2022-11-20T01:50:23.456Z,93285.66
2022-11-20T01:51:30.337Z,93278.59
2022-11-20T01:52:35.665Z,93284.47
2022-11-20T01:53:37.959Z,93278.66
2022-11-20T01:54:44.001Z,93283.66
2022-11-20T01:55:49.319Z,93282.69
2022-11-20T01:56:52.729Z,93278.44
2022-11-20T01:57:54.340Z,93280.41
2022-11-20T01:58:59.409Z,93282.03
2022-11-20T02:00:04.273Z,93273.91
2022-11-20T02:01:06.153Z,93281.56
2022-11-20T02:02:07.652Z,93279.91
2022-11-20T02:03:13.335Z,93289.72
2022-11-20T02:04:16.616Z,93288.59
2022-11-20T02:05:23.990Z,93287.44
2022-11-20T02:06:28.772Z,93280.09
2022-11-20T02:07:30.871Z,93280.59
2022-11-20T02:08:33.602Z,93277.63
2022-11-20T02:09:35.043Z,93282.72
2022-11-20T02:10:36.576Z,93282.19
2022-11-20T02:11:38.027Z,93283.03
2022-11-20T02:12:39.544Z,93280.75
2022-11-20T02:13:41.488Z,93281.41
2022-11-20T02:14:42.915Z,93274.72
2022-11-20T02:15:44.956Z,93273.88
2022-11-20T02:16:47.852Z,93275.69
2022-11-20T02:17:49.516Z,93279.47
2022-11-20T02:18:54.496Z,93281.59
2022-11-20T02:19:56.019Z,93279.63
2022-11-20T02:21:03.654Z,93279.78
2022-11-20T02:22:12.022Z,93281.75
2022-11-20T02:23:19.427Z,93282.41
2022-11-20T02:24:23.476Z,93285.00
2022-11-20T02:25:27.022Z,93286.94
2022-11-20T02:26:30.389Z,93292.63
2022-11-20T02:27:32.007Z,93290.03
2022-11-20T02:28:33.720Z,93289.72
2022-11-20T02:29:39.137Z,93285.31
2022-11-20T02:30:40.552Z,93291.03
2022-11-20T02:31:44.198Z,93288.22
2022-11-20T02:32:45.721Z,93283.66
2022-11-20T02:33:47.128Z,93288.41
2022-11-20T02:34:49.008Z,93288.09
2022-11-20T02:35:50.489Z,93289.19
2022-11-20T02:36:53.667Z,93286.09
2022-11-20T02:37:57.072Z,93291.13
2022-11-20T02:38:58.492Z,93293.56
2022-11-20T02:40:01.586Z,93294.41
2022-11-20T02:41:03.099Z,93290.16
2022-11-20T02:42:04.727Z,93297.66
2022-11-20T02:43:06.327Z,93299.13
2022-11-20T02:44:07.727Z,93292.75
2022-11-20T02:45:09.876Z,93293.38
2022-11-20T02:46:11.353Z,93287.72
2022-11-20T02:47:12.839Z,93293.72
2022-11-20T02:48:14.267Z,93293.88
2022-11-20T02:49:15.748Z,93296.97
2022-11-20T02:50:17.624Z,93306.44
2022-11-20T02:51:19.080Z,93302.19
2022-11-20T02:52:20.556Z,93297.28
2022-11-20T02:53:22.014Z,93300.81
2022-11-20T02:54:23.721Z,93297.09
2022-11-20T02:55:26.496Z,93306.00
2022-11-20T02:56:28.099Z,93297.44
2022-11-20T02:57:29.558Z,93294.28
2022-11-20T02:58:31.467Z,93290.69
2022-11-20T02:59:32.934Z,93294.53
2022-11-20T03:00:34.373Z,93301.53
2022-11-20T03:01:35.945Z,93299.44
2022-11-20T03:02:37.425Z,93291.44
2022-11-20T03:03:39.122Z,93291.69
2022-11-20T03:04:40.657Z,93296.13
2022-11-20T03:05:42.103Z,93290.88
2022-11-20T03:06:43.528Z,93291.50
2022-11-20T03:07:45.040Z,93296.09
2022-11-20T03:08:46.562Z,93296.22
2022-11-20T03:09:48.027Z,93293.47
2022-11-20T03:10:50.794Z,93292.72
2022-11-20T03:11:52.250Z,93290.91
2022-11-20T03:12:54.872Z,93292.09
2022-11-20T03:13:56.308Z,93288.00
2022-11-20T03:14:57.824Z,93287.47
2022-11-20T03:15:59.612Z,93284.22
2022-11-20T03:17:01.051Z,93287.00
2022-11-20T03:18:02.494Z,93285.22
2022-11-20T03:19:04.064Z,93285.72
2022-11-20T03:20:06.862Z,93285.72
2022-11-20T03:21:09.022Z,93287.31
2022-11-20T03:22:10.482Z,93282.13
2022-11-20T03:23:11.927Z,93283.06
2022-11-20T03:24:13.436Z,93279.34
2022-11-20T03:25:14.896Z,93288.13
2022-11-20T03:26:19.719Z,93279.50
2022-11-20T03:27:21.167Z,93279.69
2022-11-20T03:28:22.607Z,93275.41
2022-11-20T03:29:24.247Z,93273.78
2022-11-20T03:30:30.410Z,93273.44
2022-11-20T03:31:34.117Z,93276.91
2022-11-20T03:32:35.530Z,93278.03
2022-11-20T03:33:37.114Z,93276.41
2022-11-20T03:34:38.553Z,93271.69
2022-11-20T03:35:40.009Z,93273.84
2022-11-20T03:36:43.305Z,93264.69
2022-11-20T03:37:44.725Z,93272.16
2022-11-20T03:38:46.751Z,93277.09
2022-11-20T03:39:48.200Z,93268.63
2022-11-20T03:40:49.595Z,93271.16
2022-11-20T03:41:52.355Z,93269.53
2022-11-20T03:42:53.787Z,93273.94
2022-11-20T03:43:57.336Z,93262.03
2022-11-20T03:44:58.755Z,93268.88
2022-11-20T03:46:00.862Z,93266.78
2022-11-20T03:47:02.313Z,93270.53
2022-11-20T03:48:04.192Z,93264.50
2022-11-20T03:49:06.054Z,93267.91
2022-11-20T03:50:08.262Z,93261.44
2022-11-20T03:51:11.794Z,93268.78
2022-11-20T03:52:13.341Z,93267.94
2022-11-20T03:53:14.891Z,93268.41
2022-11-20T03:54:16.332Z,93265.13
2022-11-20T03:55:17.952Z,93270.16
2022-11-20T03:56:22.982Z,93266.59
2022-11-20T03:57:25.733Z,93258.44
2022-11-20T03:58:27.155Z,93265.88
2022-11-20T03:59:28.614Z,93260.72
2022-11-20T04:00:30.059Z,93257.00
2022-11-20T04:01:33.401Z,93261.41
2022-11-20T04:02:34.913Z,93268.94
2022-11-20T04:03:37.212Z,93253.91
2022-11-20T04:04:38.672Z,93257.50
2022-11-20T04:05:40.118Z,93263.69
2022-11-20T04:06:41.569Z,93263.03
2022-11-20T04:07:43.033Z,93261.41
2022-11-20T04:08:47.485Z,93262.53
2022-11-20T04:09:51.200Z,93259.16
2022-11-20T04:10:52.660Z,93266.00
2022-11-20T04:11:54.095Z,93264.81
2022-11-20T04:12:56.853Z,93257.50
2022-11-20T04:13:59.715Z,93262.84
2022-11-20T04:15:01.726Z,93259.44
2022-11-20T04:16:03.280Z,93256.19
2022-11-20T04:17:04.813Z,93262.84
2022-11-20T04:18:06.255Z,93274.25
2022-11-20T04:19:11.438Z,93273.59
2022-11-20T04:20:12.876Z,93274.69
2022-11-20T04:21:14.327Z,93275.81
2022-11-20T04:22:15.799Z,93278.63
2022-11-20T04:23:17.202Z,93275.69
2022-11-20T04:24:18.609Z,93281.00
2022-11-20T04:25:20.037Z,93278.72
2022-11-20T04:26:23.029Z,93274.81
2022-11-20T04:27:24.483Z,93276.81
2022-11-20T04:28:27.317Z,93274.94
2022-11-20T04:29:28.869Z,93280.38
2022-11-20T04:30:30.347Z,93273.41
2022-11-20T04:31:34.743Z,93273.38
2022-11-20T04:32:36.173Z,93275.06
2022-11-20T04:33:38.563Z,93271.44
2022-11-20T04:34:40.002Z,93268.88
2022-11-20T04:35:41.441Z,93271.59
2022-11-20T04:36:42.856Z,93265.75
2022-11-20T04:37:44.265Z,93266.41
2022-11-20T04:38:46.179Z,93273.41
2022-11-20T04:39:47.610Z,93274.06
2022-11-20T04:40:49.042Z,93272.41
2022-11-20T04:41:50.498Z,93273.06
2022-11-20T04:42:51.912Z,93274.38
2022-11-20T04:43:56.155Z,93274.00
2022-11-20T04:44:57.783Z,93274.81
2022-11-20T04:46:00.718Z,93274.84
2022-11-20T04:47:02.151Z,93276.75
2022-11-20T04:48:03.846Z,93277.31
2022-11-20T04:49:05.948Z,93281.56
2022-11-20T04:50:08.220Z,93288.91
2022-11-20T04:51:09.679Z,93277.03
2022-11-20T04:52:11.130Z,93284.38
2022-11-20T04:53:12.807Z,93279.78
2022-11-20T04:54:14.257Z,93284.00
2022-11-20T04:55:15.848Z,93285.66
2022-11-20T04:56:17.579Z,93283.81
2022-11-20T04:57:19.323Z,93285.50
2022-11-20T04:58:20.758Z,93291.22
2022-11-20T04:59:23.905Z,93284.91
2022-11-20T05:00:25.611Z,93290.06
2022-11-20T05:01:27.768Z,93288.59
2022-11-20T05:02:31.371Z,93283.00
2022-11-20T05:03:33.306Z,93285.66
2022-11-20T05:04:34.809Z,93293.00
2022-11-20T05:05:36.310Z,93286.16
2022-11-20T05:06:37.752Z,93284.38
2022-11-20T05:07:39.230Z,93286.66
2022-11-20T05:08:41.130Z,93282.06
2022-11-20T05:09:42.688Z,93284.63
2022-11-20T05:10:44.129Z,93284.00
2022-11-20T05:11:49.169Z,93286.41
2022-11-20T05:12:53.018Z,93281.38
2022-11-20T05:13:54.503Z,93288.56
2022-11-20T05:14:57.329Z,93285.34
2022-11-20T05:16:02.632Z,93288.72
2022-11-20T05:17:04.295Z,93288.06
2022-11-20T05:18:05.796Z,93285.97
2022-11-20T05:19:07.216Z,93283.06
2022-11-20T05:20:09.810Z,93284.19
2022-11-20T05:21:12.474Z,93284.69
2022-11-20T05:22:13.904Z,93289.72
2022-11-20T05:23:15.372Z,93287.09
2022-11-20T05:24:16.833Z,93285.00
2022-11-20T05:25:18.276Z,93284.13
2022-11-20T05:26:21.020Z,93285.91
2022-11-20T05:27:22.460Z,93285.97
2022-11-20T05:28:25.552Z,93285.25
2022-11-20T05:29:26.990Z,93285.47
2022-11-20T05:30:29.772Z,93276.63
2022-11-20T05:31:31.206Z,93289.13
2022-11-20T05:32:32.621Z,93288.41
2022-11-20T05:33:34.895Z,93284.63
2022-11-20T05:34:36.740Z,93292.63
2022-11-20T05:35:38.163Z,93287.59
2022-11-20T05:36:39.569Z,93288.06
2022-11-20T05:37:40.981Z,93290.50
2022-11-20T05:38:43.304Z,93294.25
2022-11-20T05:39:44.748Z,93292.81
2022-11-20T05:40:46.183Z,93289.47
2022-11-20T05:41:47.597Z,93291.69
2022-11-20T05:42:49.016Z,93282.31
2022-11-20T05:43:50.899Z,93287.72
2022-11-20T05:44:52.341Z,93275.38
2022-11-20T05:45:55.617Z,93275.69
2022-11-20T05:46:57.074Z,93278.00
2022-11-20T05:47:59.314Z,93275.69
2022-11-20T05:49:00.738Z,93270.94
2022-11-20T05:50:02.462Z,93277.50
2022-11-20T05:51:06.022Z,93277.94
2022-11-20T05:52:07.486Z,93265.75
2022-11-20T05:53:08.881Z,93272.41
2022-11-20T05:54:10.307Z,93273.84
2022-11-20T05:55:11.814Z,93271.41
2022-11-20T05:56:15.383Z,93267.50
2022-11-20T05:57:17.545Z,93272.72
2022-11-20T05:58:18.975Z,93272.75
2022-11-20T05:59:20.711Z,93270.13
2022-11-20T06:00:22.576Z,93274.38
2022-11-20T06:01:26.539Z,93265.34
2022-11-20T06:02:28.046Z,93276.81
2022-11-20T06:03:29.475Z,93277.13
2022-11-20T06:04:30.960Z,93277.63
2022-11-20T06:05:34.565Z,93276.50
2022-11-20T06:06:36.005Z,93278.78
2022-11-20T06:07:37.445Z,93277.44
2022-11-20T06:08:38.868Z,93274.03
2022-11-20T06:09:40.468Z,93276.19
2022-11-20T06:10:41.889Z,93273.53
2022-11-20T06:11:43.385Z,93275.63
2022-11-20T06:12:44.849Z,93281.50
2022-11-20T06:13:46.786Z,93279.25
2022-11-20T06:14:48.205Z,93279.56
2022-11-20T06:15:50.250Z,93282.16
2022-11-20T06:16:53.094Z,93275.63
2022-11-20T06:17:54.981Z,93278.25
2022-11-20T06:18:56.441Z,93283.75
2022-11-20T06:19:57.874Z,93279.66
2022-11-20T06:21:04.473Z,93282.81
2022-11-20T06:22:05.915Z,93281.31
2022-11-20T06:23:07.324Z,93280.84
2022-11-20T06:24:10.411Z,93280.22
2022-11-20T06:25:11.861Z,93276.81
2022-11-20T06:26:15.741Z,93281.69
2022-11-20T06:27:17.447Z,93282.81
2022-11-20T06:28:18.916Z,93283.09
2022-11-20T06:29:20.861Z,93270.75
2022-11-20T06:30:22.517Z,93278.88
2022-11-20T06:31:26.190Z,93280.47
2022-11-20T06:32:28.957Z,93277.06
2022-11-20T06:33:31.150Z,93281.00
2022-11-20T06:34:32.568Z,93276.63
2022-11-20T06:35:34.014Z,93280.03
2022-11-20T06:36:35.478Z,93279.56
2022-11-20T06:37:36.907Z,93288.66
2022-11-20T06:38:39.186Z,93285.38
2022-11-20T06:39:40.607Z,93284.44
2022-11-20T06:40:42.809Z,93284.13
2022-11-20T06:41:44.307Z,93283.63
2022-11-20T06:42:46.005Z,93286.06
2022-11-20T06:43:47.712Z,93289.28
2022-11-20T06:44:49.148Z,93289.13
2022-11-20T06:45:53.322Z,93293.69
2022-11-20T06:46:54.757Z,93296.31
2022-11-20T06:47:59.362Z,93294.88
2022-11-20T06:49:00.809Z,93293.19
2022-11-20T06:50:02.317Z,93292.88
2022-11-20T06:51:04.331Z,93291.44
2022-11-20T06:52:05.779Z,93304.63
2022-11-20T06:53:07.197Z,93295.47
2022-11-20T06:54:08.607Z,93291.94
2022-11-20T06:55:10.049Z,93303.72
2022-11-20T06:56:11.535Z,93302.06
2022-11-20T06:57:13.005Z,93296.81
2022-11-20T06:58:15.640Z,93295.91
2022-11-20T06:59:17.126Z,93300.75
2022-11-20T07:00:18.829Z,93300.06
2022-11-20T07:01:20.311Z,93302.03
2022-11-20T07:02:21.790Z,93301.41
2022-11-20T07:03:24.600Z,93299.06
2022-11-20T07:04:26.289Z,93296.78
2022-11-20T07:05:27.761Z,93300.38
2022-11-20T07:06:29.178Z,93301.97
2022-11-20T07:07:30.687Z,93307.25
2022-11-20T07:08:32.795Z,93303.31
2022-11-20T07:09:34.246Z,93305.28
2022-11-20T07:10:36.399Z,93310.69
2022-11-20T07:11:37.841Z,93309.06
2022-11-20T07:12:39.274Z,93311.41
2022-11-20T07:13:40.727Z,93318.03
2022-11-20T07:14:42.335Z,93312.16
2022-11-20T07:15:43.775Z,93317.25
2022-11-20T07:16:45.381Z,93316.28
2022-11-20T07:17:46.831Z,93316.63
2022-11-20T07:18:51.044Z,93308.59
2022-11-20T07:19:52.661Z,93315.44
2022-11-20T07:20:54.152Z,93315.44
2022-11-20T07:21:55.559Z,93315.69
2022-11-20T07:22:57.898Z,93321.63
2022-11-20T07:23:59.475Z,93322.16
2022-11-20T07:25:00.941Z,93327.78
2022-11-20T07:26:04.240Z,93323.31
2022-11-20T07:27:05.715Z,93323.06
2022-11-20T07:28:07.116Z,93320.84
2022-11-20T07:29:08.799Z,93328.53
2022-11-20T07:30:11.057Z,93319.41
2022-11-20T07:31:17.577Z,93330.69
2022-11-20T07:32:20.744Z,93325.66
2022-11-20T07:33:22.387Z,93320.88
2022-11-20T07:34:25.127Z,93326.44
2022-11-20T07:35:26.565Z,93330.19
2022-11-20T07:36:27.995Z,93317.69
2022-11-20T07:37:29.417Z,93328.94
2022-11-20T07:38:31.033Z,93333.00
2022-11-20T07:39:32.452Z,93325.66
2022-11-20T07:40:33.880Z,93324.47
2022-11-20T07:41:35.291Z,93323.72
2022-11-20T07:42:36.723Z,93321.91
2022-11-20T07:43:41.249Z,93322.22
2022-11-20T07:44:43.159Z,93323.19
2022-11-20T07:45:44.609Z,93316.34
2022-11-20T07:46:46.014Z,93314.56
2022-11-20T07:47:47.526Z,93317.47
2022-11-20T07:48:48.947Z,93319.25
2022-11-20T07:49:51.747Z,93318.00
2022-11-20T07:50:54.848Z,93323.91
2022-11-20T07:51:59.334Z,93326.31
2022-11-20T07:53:05.719Z,93327.94
2022-11-20T07:54:07.198Z,93330.28
2022-11-20T07:55:10.156Z,93331.53
2022-11-20T07:56:11.565Z,93329.75
2022-11-20T07:57:13.003Z,93329.59
2022-11-20T07:58:14.642Z,93328.78
2022-11-20T07:59:16.672Z,93332.38
2022-11-20T08:00:18.353Z,93329.59
2022-11-20T08:01:19.845Z,93328.78
2022-11-20T08:02:21.334Z,93336.13
2022-11-20T08:03:25.100Z,93334.81
2022-11-20T08:04:27.239Z,93337.56
2022-11-20T08:05:29.989Z,93329.44
2022-11-20T08:06:31.540Z,93336.63
2022-11-20T08:07:36.695Z,93330.28
2022-11-20T08:08:42.614Z,93331.06
2022-11-20T08:09:44.596Z,93327.31
2022-11-20T08:10:46.098Z,93331.25
2022-11-20T08:11:47.517Z,93326.69
2022-11-20T08:12:50.833Z,93328.16
2022-11-20T08:13:52.257Z,93333.53
2022-11-20T08:14:53.696Z,93334.88
2022-11-20T08:15:55.123Z,93336.00
2022-11-20T08:16:56.514Z,93336.81
2022-11-20T08:18:30.129Z,93330.94
2022-11-20T08:19:27.451Z,93337.09
2022-11-20T08:20:30.191Z,93338.72
2022-11-20T08:21:37.786Z,93341.84
2022-11-20T08:22:39.805Z,93341.53
2022-11-20T08:23:41.277Z,93346.59
2022-11-20T08:24:42.690Z,93341.38
2022-11-20T08:25:44.188Z,93334.84
2022-11-20T08:26:45.612Z,93336.00
2022-11-20T08:27:47.010Z,93331.56
2022-11-20T08:28:48.487Z,93340.06
2022-11-20T08:29:49.945Z,93338.75
2022-11-20T08:30:51.687Z,93341.72
2022-11-20T08:31:53.195Z,93336.00
2022-11-20T08:32:55.391Z,93343.66
2022-11-20T08:33:56.955Z,93340.22
2022-11-20T08:34:58.360Z,93345.44
2022-11-20T08:36:02.363Z,93341.03
2022-11-20T08:37:04.159Z,93339.59
2022-11-20T08:38:06.947Z,93333.22
2022-11-20T08:39:08.393Z,93340.88
2022-11-20T08:40:14.768Z,93340.66
2022-11-20T08:41:20.131Z,93335.00
2022-11-20T08:42:21.557Z,93342.84
2022-11-20T08:43:22.976Z,93339.84
2022-11-20T08:44:24.402Z,93339.41
2022-11-20T08:45:30.929Z,93335.03
2022-11-20T08:46:36.855Z,93334.63
2022-11-20T08:47:38.246Z,93339.25
2022-11-20T08:48:39.665Z,93335.16
2022-11-20T08:49:41.076Z,93339.25
2022-11-20T08:50:42.512Z,93342.84
2022-11-20T08:51:45.317Z,93347.22
2022-11-20T08:52:46.753Z,93345.25
2022-11-20T08:53:49.038Z,93343.47
2022-11-20T08:54:50.491Z,93350.34
2022-11-20T08:55:51.954Z,93339.91
2022-11-20T08:56:53.401Z,93355.06
2022-11-20T08:57:54.917Z,93347.84
2022-11-20T09:00:18.770Z,93345.41
2022-11-20T09:01:20.771Z,93348.03
2022-11-20T09:02:22.200Z,93348.88
2022-11-20T09:03:27.421Z,93343.00
2022-11-20T09:04:32.964Z,93354.94
2022-11-20T09:05:34.410Z,93358.03
2022-11-20T09:06:35.843Z,93339.94
2022-11-20T09:07:38.667Z,93342.06
2022-11-20T09:08:40.572Z,93340.44
2022-11-20T09:09:42.027Z,93353.63
2022-11-20T09:10:43.556Z,93346.94
2022-11-20T09:11:45.349Z,93337.31
2022-11-20T09:12:49.535Z,93345.50
2022-11-20T09:13:50.980Z,93345.81
2022-11-20T09:14:55.052Z,93345.00
2022-11-20T09:15:57.848Z,93348.41
2022-11-20T09:16:59.278Z,93345.81
2022-11-20T09:18:03.159Z,93343.72
2022-11-20T09:19:34.130Z,93342.56
2022-11-20T09:20:27.395Z,93336.19
2022-11-20T09:21:29.173Z,93337.00
2022-11-20T09:22:30.627Z,93347.16
2022-11-20T09:23:35.730Z,93343.88
2022-11-20T09:24:37.220Z,93341.59
2022-11-20T09:25:38.640Z,93338.66
2022-11-20T09:26:40.076Z,93348.47
2022-11-20T09:27:41.506Z,93347.63
2022-11-20T09:28:42.972Z,93349.25
2022-11-20T09:29:44.417Z,93349.25
2022-11-20T09:30:45.857Z,93346.34
2022-11-20T09:31:47.302Z,93346.31
2022-11-20T09:32:48.719Z,93344.34
2022-11-20T09:33:50.723Z,93339.31
2022-11-20T09:34:52.142Z,93344.19
2022-11-20T09:35:53.661Z,93341.09
2022-11-20T09:36:55.099Z,93346.00
2022-11-20T09:37:56.525Z,93331.28
2022-11-20T09:38:59.358Z,93345.50
2022-11-20T09:40:00.782Z,93338.50
2022-11-20T09:41:05.812Z,93347.63
2022-11-20T09:42:26.376Z,93345.81
2022-11-20T09:43:42.458Z,93337.16
2022-11-20T09:45:05.786Z,93344.34
2022-11-20T09:46:12.675Z,93343.72
2022-11-20T09:47:23.636Z,93338.63
2022-11-20T09:48:53.368Z,93346.31
2022-11-20T09:50:07.322Z,93344.22
2022-11-20T09:51:18.538Z,93344.03
2022-11-20T09:52:28.198Z,93346.81
2022-11-20T09:53:37.314Z,93347.63
2022-11-20T09:54:41.813Z,93347.63
2022-11-20T09:55:43.585Z,93349.41
2022-11-20T09:56:48.503Z,93342.22
2022-11-20T09:57:52.774Z,93354.78
2022-11-20T09:58:58.615Z,93348.75
2022-11-20T10:00:02.475Z,93348.41
2022-11-20T10:01:11.244Z,93347.75
2022-11-20T10:02:20.792Z,93339.47
2022-11-20T10:03:36.887Z,93350.22
2022-11-20T10:04:45.722Z,93350.84
2022-11-20T10:05:51.081Z,93347.25
2022-11-20T10:08:25.795Z,93344.78
2022-11-20T10:09:32.537Z,93345.94
2022-11-20T10:10:43.740Z,93345.28
2022-11-20T10:11:54.612Z,93343.66
2022-11-20T10:13:12.254Z,93337.78
2022-11-20T10:14:24.770Z,93341.97
2022-11-20T10:15:34.751Z,93341.63
2022-11-20T10:16:44.094Z,93344.59
2022-11-20T10:18:10.031Z,93340.50
2022-11-20T10:19:31.870Z,93340.03
2022-11-20T10:20:44.623Z,93334.13
2022-11-20T10:22:00.127Z,93344.25
2022-11-20T10:23:22.748Z,93333.47
2022-11-20T10:24:45.414Z,93337.25
2022-11-20T10:25:55.388Z,93334.00
2022-11-20T10:27:04.440Z,93330.03
2022-11-20T10:28:16.737Z,93330.19
2022-11-20T10:29:20.139Z,93334.06
2022-11-20T10:30:22.731Z,93329.34
2022-11-20T10:31:32.202Z,93338.81
2022-11-20T10:32:39.832Z,93334.41
2022-11-20T10:34:10.639Z,93337.63
2022-11-20T10:35:19.029Z,93342.69
2022-11-20T10:36:27.028Z,93338.97
2022-11-20T10:37:32.609Z,93342.44
2022-11-20T10:38:39.933Z,93349.09
2022-11-20T10:39:50.673Z,93343.06
2022-11-20T10:40:58.192Z,93343.66
2022-11-20T10:42:01.528Z,93345.25
2022-11-20T10:43:09.196Z,93342.31
2022-11-20T10:44:15.748Z,93336.88
2022-11-20T10:45:37.714Z,93341.69
2022-11-20T10:46:43.111Z,93337.59
2022-11-20T10:47:45.158Z,93336.81
2022-11-20T10:48:47.256Z,93338.47
2022-11-20T10:49:53.772Z,93336.47
2022-11-20T10:51:18.866Z,93338.94
2022-11-20T10:52:30.152Z,93335.66
2022-11-20T10:53:56.533Z,93349.53
2022-11-20T10:55:07.109Z,93334.47
2022-11-20T10:56:19.444Z,93335.66
2022-11-20T10:57:33.629Z,93337.59
2022-11-20T10:58:46.277Z,93338.06
2022-11-20T11:00:01.441Z,93336.63
2022-11-20T11:01:06.012Z,93341.75
2022-11-20T11:02:16.814Z,93339.69
2022-11-20T11:03:24.565Z,93335.22
2022-11-20T11:04:36.680Z,93336.94
2022-11-20T11:05:43.220Z,93338.59
2022-11-20T11:06:49.215Z,93328.38
2022-11-20T11:07:54.074Z,93326.75
2022-11-20T11:08:59.638Z,93332.41
2022-11-20T11:10:01.080Z,93336.13
2022-11-20T11:11:16.963Z,93325.13
2022-11-20T11:12:19.462Z,93321.84
2022-11-20T11:13:22.295Z,93333.03
2022-11-20T11:14:23.745Z,93321.25
2022-11-20T11:15:28.701Z,93329.63
2022-11-20T11:16:30.175Z,93319.25
2022-11-20T11:17:33.077Z,93321.88
2022-11-20T11:18:35.394Z,93319.91
2022-11-20T11:19:36.830Z,93320.13
2022-11-20T11:20:38.614Z,93322.50
2022-11-20T11:21:52.288Z,93316.28
2022-11-20T11:22:58.354Z,93316.63
2022-11-20T11:24:19.697Z,93323.59
2022-11-20T11:25:30.200Z,93321.84
2022-11-20T11:26:32.955Z,93317.13
2022-11-20T11:27:34.355Z,93325.22
2022-11-20T11:28:35.809Z,93316.81
2022-11-20T11:29:37.327Z,93319.25
2022-11-20T11:30:43.852Z,93310.38
2022-11-20T11:31:45.282Z,93312.03
2022-11-20T11:32:47.522Z,93306.13
2022-11-20T11:33:49.004Z,93310.00
2022-11-20T11:35:00.332Z,93311.69
2022-11-20T11:36:05.444Z,93307.38
2022-11-20T11:37:15.070Z,93315.66
2022-11-20T11:38:20.483Z,93309.44
2022-11-20T11:39:22.734Z,93310.94
2022-11-20T11:40:32.842Z,93296.44
2022-11-20T11:41:35.976Z,93306.56
2022-11-20T11:42:43.388Z,93310.81
2022-11-20T11:43:53.346Z,93306.03
2022-11-20T11:44:59.111Z,93310.72
2022-11-20T11:46:01.112Z,93303.16
2022-11-20T11:47:04.454Z,93304.81
2022-11-20T11:48:10.170Z,93295.31
2022-11-20T11:49:18.602Z,93297.44
2022-11-20T11:50:22.784Z,93296.94
2022-11-20T11:51:27.040Z,93295.81
2022-11-20T11:52:31.995Z,93300.16
2022-11-20T11:53:41.519Z,93293.97
2022-11-20T11:54:49.363Z,93288.31
2022-11-20T11:55:55.429Z,93290.66
2022-11-20T11:57:01.557Z,93286.25
2022-11-20T11:58:12.195Z,93286.63
2022-11-20T11:59:24.669Z,93290.97
2022-11-20T12:00:27.053Z,93286.94
2022-11-20T12:01:33.297Z,93293.38
2022-11-20T12:02:38.748Z,93283.88
2022-11-20T12:03:43.029Z,93287.97
2022-11-20T12:04:51.569Z,93283.69
2022-11-20T12:05:58.944Z,93285.75
2022-11-20T12:07:24.278Z,93281.13
2022-11-20T12:08:31.016Z,93286.34
2022-11-20T12:09:38.395Z,93282.78
2022-11-20T12:10:46.442Z,93280.78
2022-11-20T12:11:54.473Z,93280.13
2022-11-20T12:13:05.045Z,93283.19
2022-11-20T12:14:15.323Z,93282.34
2022-11-20T12:15:26.632Z,93288.78
2022-11-20T12:16:28.757Z,93286.56
2022-11-20T12:17:30.286Z,93284.91
2022-11-20T12:18:32.043Z,93277.38
2022-11-20T12:19:35.420Z,93280.78
2022-11-20T12:20:44.967Z,93281.03
2022-11-20T12:22:04.151Z,93273.31
2022-11-20T12:23:15.844Z,93280.53
2022-11-20T12:24:40.052Z,93276.22
2022-11-20T12:25:47.263Z,93272.88
2022-11-20T12:27:04.547Z,93273.94
2022-11-20T12:28:35.410Z,93269.50
2022-11-20T12:29:49.054Z,93271.94
2022-11-20T12:31:05.720Z,93266.03
2022-11-20T12:32:36.737Z,93274.28